Time;durP1;ratioP1;P1;durP2;ratioP2;P2;SDS_P1;SDS_P2;PMS_P1;PMS_P2;Temp;Humidity;BMP_temperature;BMP_pressure;BME280_temperature;BME280_humidity;BME280_pressure;Samples;Min_cycle;Max_cycle;Signal;HPM_P1;HPM_P2
2022/05/05 00:01:43;;;;;;;2.45;1.73;;;3.40;78.80;;;;;;4956477;28;20736;-77
2022/05/05 00:04:09;;;;;;;4.47;2.15;;;3.40;78.80;;;;;;4973011;28;20433;-76
2022/05/05 00:06:36;;;;;;;4.40;1.75;;;3.40;78.80;;;;;;4973492;28;20057;-76
2022/05/05 00:09:03;;;;;;;3.67;2.20;;;3.40;78.90;;;;;;4973351;28;20175;-76
2022/05/05 00:14:28;;;;;;;2.22;1.75;;;3.30;79.10;;;;;;4973463;28;20450;-77
2022/05/05 00:17:08;;;;;;;3.60;1.98;;;3.30;79.10;;;;;;4973268;28;20027;-77
2022/05/05 00:19:35;;;;;;;3.47;1.88;;;3.30;79.40;;;;;;4973160;28;20373;-76
2022/05/05 00:22:03;;;;;;;3.10;1.60;;;3.20;79.50;;;;;;4956197;28;20027;-77
2022/05/05 00:24:28;;;;;;;;;;;3.20;79.80;;;;;;4973128;28;20126;-77
2022/05/05 00:26:54;;;;;;;3.63;2.53;;;3.20;79.50;;;;;;4973591;28;19966;-77
2022/05/05 00:29:20;;;;;;;2.70;1.92;;;3.10;79.80;;;;;;4973210;28;20030;-76
2022/05/05 00:31:47;;;;;;;2.58;1.65;;;3.10;80.10;;;;;;4956123;28;20031;-75
2022/05/05 00:34:13;;;;;;;3.55;2.40;;;3.10;80.20;;;;;;4973233;28;20027;-77
2022/05/05 00:36:39;;;;;;;3.42;2.05;;;3.10;80.30;;;;;;4973202;28;20058;-76
2022/05/05 00:39:07;;;;;;;3.45;2.05;;;3.10;80.30;;;;;;4973660;28;20029;-76
2022/05/05 00:41:33;;;;;;;;;;;3.10;80.30;;;;;;4975064;28;20033;-76
2022/05/05 00:43:59;;;;;;;4.38;2.22;;;3.10;80.10;;;;;;4974729;28;19919;-77
2022/05/05 00:46:25;;;;;;;4.72;2.05;;;3.00;80.10;;;;;;4973378;28;20059;-76
2022/05/05 00:48:51;;;;;;;3.33;2.28;;;3.00;80.30;;;;;;4992241;28;20089;-75
2022/05/05 00:51:16;;;;;;;4.35;3.10;;;3.00;80.30;;;;;;4974912;28;20526;-76
2022/05/05 00:53:42;;;;;;;4.45;1.88;;;3.00;80.10;;;;;;4992290;28;20034;-76
2022/05/05 00:56:14;;;;;;;3.38;2.60;;;3.00;80.00;;;;;;4986463;28;20041;-77
2022/05/05 00:58:43;;;;;;;5.13;2.88;;;3.00;80.10;;;;;;4955422;28;20140;-76
2022/05/05 01:01:09;;;;;;;4.15;2.47;;;2.90;80.00;;;;;;4972852;28;20388;-76
2022/05/05 01:03:36;;;;;;;3.65;2.58;;;2.90;80.00;;;;;;4972857;28;20461;-76
2022/05/05 01:06:04;;;;;;;6.43;2.30;;;2.90;79.90;;;;;;4955456;28;20031;-76
2022/05/05 01:08:30;;;;;;;4.75;2.90;;;2.90;79.90;;;;;;4972808;28;20731;-76
2022/05/05 01:10:56;;;;;;;5.72;2.75;;;2.90;79.80;;;;;;4972767;28;20122;-76
2022/05/05 01:13:22;;;;;;;4.43;3.13;;;2.90;79.70;;;;;;4972157;28;20027;-76
2022/05/05 01:15:49;;;;;;;4.75;2.72;;;2.90;79.60;;;;;;4975195;28;20034;-75
2022/05/05 01:18:15;;;;;;;3.53;2.42;;;2.90;79.60;;;;;;4976316;28;20022;-77
2022/05/05 01:20:45;;;;;;;3.25;2.45;;;2.90;79.40;;;;;;4976392;28;20031;-76
2022/05/05 01:23:12;;;;;;;5.22;2.65;;;2.90;79.50;;;;;;4975137;28;20030;-76
2022/05/05 01:28:22;;;;;;;4.00;2.50;;;2.90;79.40;;;;;;4976363;28;20038;-77
2022/05/05 01:30:48;;;;;;;4.45;3.25;;;2.90;79.40;;;;;;4976188;28;20493;-76
2022/05/05 01:33:22;;;;;;;3.83;2.75;;;2.90;79.40;;;;;;4976143;28;20034;-75
2022/05/05 01:35:51;;;;;;;3.70;2.60;;;2.80;79.30;;;;;;4958892;28;20071;-77
2022/05/05 01:38:22;;;;;;;3.30;2.72;;;2.80;79.40;;;;;;4976076;28;20037;-75
2022/05/05 01:40:48;;;;;;;6.65;2.97;;;2.80;79.60;;;;;;4975042;28;20420;-76
2022/05/05 01:43:16;;;;;;;4.05;2.67;;;2.80;79.80;;;;;;4958474;28;20027;-75
2022/05/05 01:45:42;;;;;;;3.53;2.70;;;2.80;80.10;;;;;;4975860;28;20476;-76
2022/05/05 01:48:09;;;;;;;4.60;3.20;;;2.80;80.10;;;;;;4975636;28;20050;-75
2022/05/05 01:50:35;;;;;;;4.35;2.67;;;2.80;80.20;;;;;;4975748;28;20046;-76
2022/05/05 01:53:02;;;;;;;5.82;3.42;;;2.80;80.50;;;;;;4975700;28;20035;-77
2022/05/05 01:55:30;;;;;;;3.63;2.25;;;2.80;80.50;;;;;;4975661;28;20033;-75
2022/05/05 01:57:56;;;;;;;;;;;2.70;80.50;;;;;;4958161;28;20042;-76
2022/05/05 02:00:21;;;;;;;5.07;2.67;;;2.70;80.20;;;;;;4958147;28;20332;-77
2022/05/05 02:02:47;;;;;;;4.82;2.55;;;2.70;80.60;;;;;;4975400;28;20035;-77
2022/05/05 02:05:14;;;;;;;5.10;2.45;;;2.70;80.70;;;;;;4975496;28;20481;-77
2022/05/05 02:07:41;;;;;;;5.22;2.60;;;2.70;80.80;;;;;;4975410;28;20031;-77
2022/05/05 02:10:09;;;;;;;7.25;2.92;;;2.70;80.90;;;;;;4975268;28;20031;-78
2022/05/05 02:12:36;;;;;;;3.50;2.22;;;2.70;80.90;;;;;;4974634;28;20055;-77
2022/05/05 02:15:08;;;;;;;4.85;3.03;;;2.70;80.80;;;;;;4975197;28;20400;-76
2022/05/05 02:17:35;;;;;;;6.00;3.33;;;2.80;81.00;;;;;;4975252;28;20487;-76
2022/05/05 02:20:02;;;;;;;5.70;2.50;;;2.80;80.80;;;;;;4957871;28;20080;-77
2022/05/05 02:22:28;;;;;;;5.43;2.72;;;2.80;80.70;;;;;;4957639;28;20499;-75
2022/05/05 02:24:54;;;;;;;3.20;2.60;;;2.80;80.70;;;;;;4957746;28;20477;-78
2022/05/05 02:27:20;;;;;;;6.40;2.55;;;2.90;80.70;;;;;;4956912;28;20081;-77
2022/05/05 02:29:46;;;;;;;3.90;2.63;;;2.90;80.40;;;;;;4974051;28;20046;-76
2022/05/05 02:32:12;;;;;;;5.47;2.78;;;2.90;80.10;;;;;;4974949;28;20435;-76
2022/05/05 02:34:39;;;;;;;5.07;2.97;;;3.00;79.90;;;;;;4974946;28;20030;-77
2022/05/05 02:39:49;;;;;;;2.60;1.95;;;3.10;79.50;;;;;;4978226;28;20046;-76
2022/05/05 02:42:17;;;;;;;3.50;2.10;;;3.20;79.10;;;;;;4975271;28;20492;-78
2022/05/05 02:44:46;;;;;;;2.97;2.35;;;3.20;78.90;;;;;;4974876;28;20031;-76
2022/05/05 02:47:12;;;;;;;4.57;2.63;;;3.30;78.70;;;;;;4973663;28;20090;-76
2022/05/05 02:49:38;;;;;;;4.32;2.38;;;3.30;78.40;;;;;;4974625;28;20396;-77
2022/05/05 02:52:05;;;;;;;3.67;2.33;;;3.40;78.30;;;;;;4974593;28;20027;-76
2022/05/05 02:57:16;;;;;;;4.50;2.63;;;3.40;77.80;;;;;;4974892;28;20054;-75
2022/05/05 02:59:42;;;;;;;3.63;2.67;;;3.50;77.90;;;;;;4974536;28;20035;-78
2022/05/05 03:02:08;;;;;;;5.03;2.30;;;3.50;77.80;;;;;;4957036;28;20023;-78
2022/05/05 03:04:34;;;;;;;3.00;2.45;;;3.50;77.40;;;;;;4956174;28;20485;-77
2022/05/05 03:07:00;;;;;;;8.05;2.67;;;3.50;77.10;;;;;;4974276;28;20023;-76
2022/05/05 03:09:26;;;;;;;3.13;2.45;;;3.60;77.10;;;;;;4974191;28;20552;-76
2022/05/05 03:11:51;;;;;;;3.13;1.98;;;3.60;76.90;;;;;;4974277;28;20019;-76
2022/05/05 03:14:17;;;;;;;3.75;1.95;;;3.60;76.70;;;;;;4973986;28;20027;-78
2022/05/05 03:16:43;;;;;;;4.60;2.65;;;3.60;76.10;;;;;;4974281;28;20073;-76
2022/05/05 03:19:09;;;;;;;6.22;2.53;;;3.70;75.80;;;;;;4974085;28;20027;-76
2022/05/05 03:21:36;;;;;;;3.20;2.37;;;3.70;75.80;;;;;;4973504;28;20440;-77
2022/05/05 03:24:03;;;;;;;4.47;2.22;;;3.70;76.00;;;;;;4974282;28;20477;-76
2022/05/05 03:26:29;;;;;;;3.87;2.10;;;3.80;75.80;;;;;;4993461;28;20033;-77
2022/05/05 03:28:54;;;;;;;2.38;1.83;;;3.80;75.60;;;;;;4993513;28;20030;-77
2022/05/05 03:31:20;;;;;;;3.92;2.35;;;3.80;75.30;;;;;;4976538;28;20077;-77
2022/05/05 03:33:46;;;;;;;5.38;2.78;;;3.90;75.50;;;;;;4988329;23;20038;-76
2022/05/05 03:36:12;;;;;;;3.47;2.47;;;4.00;75.80;;;;;;5030918;28;20033;-76
2022/05/05 03:38:37;;;;;;;5.32;3.67;;;4.10;75.10;;;;;;5056487;28;20012;-77
2022/05/05 03:41:05;;;;;;;6.50;3.33;;;4.10;74.40;;;;;;5053451;28;20025;-77
2022/05/05 03:43:31;;;;;;;5.78;2.70;;;4.10;74.30;;;;;;5035034;28;20120;-77
2022/05/05 03:45:57;;;;;;;3.15;2.58;;;4.20;74.40;;;;;;5052574;28;20387;-76
2022/05/05 03:48:23;;;;;;;4.95;2.33;;;4.30;74.30;;;;;;5034705;28;20032;-76
2022/05/05 03:50:49;;;;;;;4.35;2.00;;;4.30;73.80;;;;;;5034384;28;20060;-77
2022/05/05 03:53:14;;;;;;;4.32;2.45;;;4.30;73.30;;;;;;5052273;28;20100;-77
2022/05/05 03:55:40;;;;;;;5.45;2.30;;;4.40;73.30;;;;;;5050684;28;20124;-76
2022/05/05 03:58:06;;;;;;;6.28;2.10;;;4.40;73.10;;;;;;5052135;28;20021;-77
2022/05/05 04:00:32;;;;;;;5.88;2.75;;;4.40;72.50;;;;;;5052165;28;20025;-76
2022/05/05 04:05:41;;;;;;;2.85;2.30;;;4.60;71.70;;;;;;5052394;28;20039;-77
2022/05/05 04:08:09;;;;;;;5.32;2.83;;;4.50;71.00;;;;;;5052641;28;20021;-76
2022/05/05 04:10:35;;;;;;;4.45;2.15;;;4.60;71.10;;;;;;5052626;28;20462;-78
2022/05/05 04:13:00;;;;;;;3.05;1.98;;;4.70;69.90;;;;;;5051186;28;20107;-76
2022/05/05 04:15:26;;;;;;;4.80;2.20;;;4.70;69.30;;;;;;5052279;28;20036;-78
2022/05/05 04:17:52;;;;;;;5.93;1.88;;;4.60;69.00;;;;;;5032873;28;20087;-79
2022/05/05 04:20:18;;;;;;;4.03;2.22;;;4.70;68.90;;;;;;5051932;28;20394;-76
2022/05/05 04:22:44;;;;;;;3.03;1.70;;;4.80;68.20;;;;;;5051947;28;20028;-75
2022/05/05 04:25:12;;;;;;;4.55;1.38;;;4.80;67.80;;;;;;5033983;28;20478;-77
2022/05/05 04:27:38;;;;;;;;;;;5.00;66.90;;;;;;5052128;28;20467;-75
2022/05/05 04:30:05;;;;;;;4.78;1.90;;;5.00;66.50;;;;;;5044676;28;19913;-76
2022/05/05 04:32:30;;;;;;;6.70;2.10;;;5.10;65.40;;;;;;5034359;28;20466;-77
2022/05/05 04:34:56;;;;;;;3.47;2.55;;;5.20;65.20;;;;;;5051670;28;20049;-76
2022/05/05 04:37:22;;;;;;;6.03;2.28;;;5.40;65.00;;;;;;5051522;28;20025;-77
2022/05/05 04:39:48;;;;;;;4.65;2.28;;;5.40;65.00;;;;;;5051877;28;20099;-76
2022/05/05 04:42:15;;;;;;;3.28;1.85;;;5.50;64.70;;;;;;5051776;28;20040;-76
2022/05/05 04:44:41;;;;;;;5.45;2.58;;;5.50;63.60;;;;;;5038564;28;20395;-77
2022/05/05 04:47:07;;;;;;;4.88;2.13;;;5.80;64.70;;;;;;5012069;28;20529;-76
2022/05/05 04:49:33;;;;;;;8.63;2.33;;;6.40;63.20;;;;;;5031750;28;20421;-79
2022/05/05 04:51:59;;;;;;;2.50;1.70;;;7.40;60.70;;;;;;5036131;28;20044;-78
2022/05/05 04:54:25;;;;;;;2.75;1.60;;;8.40;57.20;;;;;;5017981;28;20029;-78
2022/05/05 04:56:51;;;;;;;3.80;1.92;;;9.00;52.80;;;;;;5035638;28;20080;-78
2022/05/05 04:59:17;;;;;;;8.80;2.50;;;9.50;51.20;;;;;;5035440;28;20029;-78
2022/05/05 05:01:42;;;;;;;3.13;1.85;;;10.10;49.60;;;;;;5035460;28;20446;-76
2022/05/05 05:04:08;;;;;;;3.17;2.03;;;10.30;46.20;;;;;;5036856;28;20029;-77
2022/05/05 05:06:34;;;;;;;3.65;2.17;;;10.20;46.00;;;;;;5037332;28;20061;-76
2022/05/05 05:09:01;;;;;;;3.90;2.08;;;10.70;47.00;;;;;;5055270;28;20367;-76
2022/05/05 05:11:27;;;;;;;4.15;2.22;;;11.40;43.40;;;;;;5023890;28;20110;-77
2022/05/05 05:13:53;;;;;;;4.70;2.10;;;11.60;43.00;;;;;;5015291;28;20030;-77
2022/05/05 05:16:19;;;;;;;4.45;1.80;;;12.30;41.10;;;;;;5014118;28;20029;-77
2022/05/05 05:18:45;;;;;;;4.65;2.15;;;12.30;40.40;;;;;;5015322;28;20022;-78
2022/05/05 05:21:10;;;;;;;6.35;2.50;;;12.60;41.00;;;;;;5030435;28;20387;-78
2022/05/05 05:23:36;;;;;;;4.70;1.98;;;13.00;39.70;;;;;;5017105;28;20399;-76
2022/05/05 05:26:02;;;;;;;4.78;2.55;;;13.40;39.40;;;;;;5034725;28;20029;-78
2022/05/05 05:28:28;;;;;;;1.60;1.40;;;14.00;37.50;;;;;;5035002;28;20426;-78
2022/05/05 05:30:54;;;;;;;5.10;2.40;;;14.30;36.50;;;;;;5034453;28;20044;-78
2022/05/05 05:33:20;;;;;;;3.65;2.05;;;14.60;36.20;;;;;;5034900;28;20037;-80
2022/05/05 05:35:46;;;;;;;3.22;1.73;;;14.60;35.60;;;;;;5029818;28;20041;-79
2022/05/05 05:38:13;;;;;;;7.22;2.63;;;14.90;35.30;;;;;;5040295;28;20478;-78
2022/05/05 05:40:40;;;;;;;3.65;2.15;;;14.20;35.40;;;;;;5036623;28;20074;-79
2022/05/05 05:43:06;;;;;;;5.43;1.90;;;13.70;36.30;;;;;;5023336;28;20530;-77
2022/05/05 05:45:32;;;;;;;3.42;2.13;;;14.10;36.40;;;;;;5033212;28;20033;-77
2022/05/05 05:47:58;;;;;;;2.78;1.65;;;14.80;35.30;;;;;;5023491;28;20026;-79
2022/05/05 05:50:23;;;;;;;3.28;2.17;;;15.40;33.90;;;;;;5016537;28;20104;-78
2022/05/05 05:52:49;;;;;;;4.32;1.73;;;15.90;33.60;;;;;;5014589;28;20022;-77
2022/05/05 05:55:15;;;;;;;6.63;1.85;;;17.10;32.90;;;;;;5027903;28;20108;-77
2022/05/05 05:57:41;;;;;;;4.30;1.70;;;18.20;31.90;;;;;;5034223;28;20029;-77
2022/05/05 06:00:08;;;;;;;4.30;1.33;;;18.90;30.20;;;;;;5034142;28;20099;-79
2022/05/05 06:05:18;;;;;;;6.15;1.38;;;18.20;29.70;;;;;;5034180;28;20040;-77
2022/05/05 06:07:44;;;;;;;6.03;2.30;;;18.00;30.00;;;;;;5033958;28;20068;-77
2022/05/05 06:10:10;;;;;;;4.50;1.27;;;18.50;29.70;;;;;;5034278;28;20109;-78
2022/05/05 06:12:36;;;;;;;4.75;1.70;;;18.10;29.60;;;;;;5047002;28;20108;-78
2022/05/05 06:15:02;;;;;;;5.53;1.65;;;18.70;29.80;;;;;;5054196;28;20427;-78
2022/05/05 06:17:28;;;;;;;4.57;1.50;;;19.60;28.80;;;;;;5054067;28;20048;-78
2022/05/05 06:19:54;;;;;;;2.55;1.27;;;19.90;27.50;;;;;;5053847;28;20064;-78
2022/05/05 06:22:20;;;;;;;2.47;1.20;;;19.50;28.10;;;;;;5053822;28;20025;-78
2022/05/05 06:24:45;;;;;;;3.47;1.33;;;19.90;27.60;;;;;;5053874;28;20379;-77
2022/05/05 06:27:11;;;;;;;4.60;1.45;;;19.90;27.00;;;;;;5032662;28;20033;-79
2022/05/05 06:29:37;;;;;;;2.60;1.10;;;19.00;27.60;;;;;;5042864;28;20040;-77
2022/05/05 06:32:06;;;;;;;2.58;1.00;;;19.40;27.90;;;;;;5013738;28;20097;-79
2022/05/05 06:34:32;;;;;;;4.38;1.70;;;19.90;27.10;;;;;;5016214;28;20053;-78
2022/05/05 06:36:59;;;;;;;2.92;1.23;;;19.30;26.80;;;;;;5033355;28;20467;-78
2022/05/05 06:39:24;;;;;;;3.03;1.02;;;19.00;27.20;;;;;;5033379;28;20025;-79
2022/05/05 06:41:50;;;;;;;4.20;2.15;;;18.90;27.60;;;;;;5032610;28;20025;-80
2022/05/05 06:44:16;;;;;;;4.70;1.48;;;19.30;27.30;;;;;;5033715;28;20479;-84
2022/05/05 06:46:44;;;;;;;3.22;1.38;;;18.60;27.40;;;;;;5034866;28;20049;-84
2022/05/05 06:49:10;;;;;;;3.40;1.40;;;18.90;27.80;;;;;;5035284;28;20080;-82
2022/05/05 06:51:37;;;;;;;2.70;1.38;;;19.90;27.10;;;;;;5015665;28;20072;-84
2022/05/05 06:54:03;;;;;;;3.00;1.10;;;20.50;26.30;;;;;;5033862;28;20036;-85
2022/05/05 06:56:30;;;;;;;5.83;1.43;;;19.50;25.90;;;;;;5016087;28;20088;-84
2022/05/05 06:58:55;;;;;;;3.83;1.00;;;17.60;26.70;;;;;;5043922;28;20385;-84
2022/05/05 07:06:49;;;;;;;2.47;1.02;;;12.60;30.00;;;;;;5054543;28;20090;-84
2022/05/05 07:11:59;;;;;;;2.47;0.98;;;13.30;31.00;;;;;;5014635;28;20048;-85
2022/05/05 07:14:25;;;;;;;1.98;0.95;;;15.20;29.80;;;;;;5009648;28;20029;-85
2022/05/05 07:16:51;;;;;;;2.17;1.45;;;16.80;28.20;;;;;;5062250;28;20025;-85
2022/05/05 07:19:17;;;;;;;4.25;1.33;;;18.50;27.40;;;;;;5067269;28;20028;-85
2022/05/05 07:21:42;;;;;;;6.05;1.63;;;19.60;25.80;;;;;;5063237;28;20044;-84
2022/05/05 07:24:09;;;;;;;1.80;1.20;;;19.90;26.20;;;;;;5054436;28;20021;-85
2022/05/05 07:26:35;;;;;;;3.03;1.45;;;21.10;25.50;;;;;;5054179;28;20025;-86
2022/05/05 07:29:01;;;;;;;6.20;1.42;;;21.50;25.00;;;;;;5054086;28;20036;-86
2022/05/05 07:31:27;;;;;;;4.15;1.50;;;21.60;25.00;;;;;;5041902;28;20029;-87
2022/05/05 07:33:52;;;;;;;2.45;1.13;;;21.80;25.00;;;;;;5053201;28;20044;-87
2022/05/05 07:36:18;;;;;;;6.15;0.98;;;23.00;24.50;;;;;;5053542;28;20075;-87
2022/05/05 07:38:44;;;;;;;4.40;1.55;;;23.00;23.80;;;;;;5053372;28;20024;-85
2022/05/05 07:41:10;;;;;;;2.53;1.65;;;22.50;23.80;;;;;;5053779;28;20033;-84
2022/05/05 07:43:36;;;;;;;2.20;1.60;;;22.00;24.10;;;;;;5055383;28;20084;-87
2022/05/05 07:46:02;;;;;;;3.63;1.30;;;22.30;24.40;;;;;;5054642;28;20069;-84
2022/05/05 07:48:27;;;;;;;2.15;1.10;;;22.50;23.60;;;;;;5054980;28;20105;-85
2022/05/05 07:50:53;;;;;;;5.13;1.45;;;23.00;23.60;;;;;;5045789;28;20101;-87
2022/05/05 07:53:20;;;;;;;7.35;1.55;;;23.50;23.10;;;;;;5048576;28;20045;-85
2022/05/05 07:55:46;;;;;;;2.38;1.50;;;23.20;23.10;;;;;;5062321;28;20068;-85
2022/05/05 07:58:12;;;;;;;8.35;2.10;;;23.70;23.10;;;;;;5061130;28;20406;-81
2022/05/05 08:00:37;;;;;;;5.13;2.00;;;23.80;22.80;;;;;;5039120;28;20029;-85
2022/05/05 08:03:03;;;;;;;4.32;1.65;;;23.70;23.00;;;;;;5055264;28;20104;-85
2022/05/05 08:05:29;;;;;;;4.20;1.80;;;24.30;22.70;;;;;;5043808;28;20029;-87
2022/05/05 08:07:55;;;;;;;2.03;1.30;;;24.60;22.90;;;;;;5032954;28;20032;-85
2022/05/05 08:10:21;;;;;;;2.83;1.83;;;25.50;22.70;;;;;;5032903;28;20145;-86
2022/05/05 08:12:47;;;;;;;2.92;1.80;;;26.50;22.30;;;;;;5032856;28;20562;-86
2022/05/05 08:15:16;;;;;;;4.32;1.35;;;26.40;22.00;;;;;;5032887;28;20058;-86
2022/05/05 08:17:43;;;;;;;4.97;1.50;;;26.90;22.20;;;;;;5032606;28;20415;-85
2022/05/05 08:20:10;;;;;;;1.95;1.33;;;26.90;21.50;;;;;;5032554;28;20030;-87
2022/05/05 08:22:37;;;;;;;4.07;1.38;;;26.00;21.80;;;;;;5046559;28;20021;-87
2022/05/05 08:30:32;;;;;;;2.33;1.83;;;25.20;22.10;;;;;;5042662;28;20512;-85
2022/05/05 08:32:58;;;;;;;4.38;1.23;;;24.40;22.10;;;;;;5039811;28;20068;-84
2022/05/05 08:35:24;;;;;;;3.90;1.80;;;24.00;22.20;;;;;;5041204;28;20057;-86
2022/05/05 08:37:53;;;;;;;2.80;1.33;;;23.40;22.60;;;;;;5045226;28;20035;-84
2022/05/05 08:40:23;;;;;;;2.67;1.10;;;23.00;22.60;;;;;;5052473;28;20164;-86
2022/05/05 08:42:49;;;;;;;5.60;1.50;;;22.80;22.90;;;;;;5034581;28;20021;-84
2022/05/05 08:45:15;;;;;;;4.30;1.35;;;23.30;23.00;;;;;;5052391;28;20423;-85
2022/05/05 08:47:44;;;;;;;1.80;1.17;;;24.40;22.60;;;;;;5052420;28;20046;-86
2022/05/05 08:50:10;;;;;;;7.10;1.70;;;24.30;22.30;;;;;;5052790;28;20033;-87
2022/05/05 08:52:50;;;;;;;1.90;1.10;;;24.10;22.60;;;;;;5044308;28;20113;-85
2022/05/05 08:55:18;;;;;;;4.47;1.42;;;23.80;22.40;;;;;;5038463;28;20017;-87
2022/05/05 08:57:45;;;;;;;2.60;1.17;;;22.80;22.50;;;;;;5040615;28;20053;-87
2022/05/05 09:00:15;;;;;;;2.30;1.30;;;23.10;22.80;;;;;;5033116;28;20025;-84
2022/05/05 09:02:42;;;;;;;3.28;1.30;;;22.10;22.80;;;;;;5014956;28;20128;-84
2022/05/05 09:05:09;;;;;;;4.63;1.50;;;21.20;23.70;;;;;;5032049;28;20022;-85
2022/05/05 09:07:55;;;;;;;1.88;1.30;;;21.00;23.90;;;;;;5031834;28;20032;-85
2022/05/05 09:10:21;;;;;;;3.87;1.63;;;21.20;24.00;;;;;;5030750;28;20049;-84
2022/05/05 09:13:01;;;;;;;2.13;1.30;;;21.40;23.90;;;;;;5033190;28;20025;-86
2022/05/05 09:15:34;;;;;;;2.92;1.45;;;21.80;23.80;;;;;;5032196;28;20026;-84
2022/05/05 09:18:16;;;;;;;4.28;1.98;;;22.60;23.50;;;;;;5032303;28;20022;-85
2022/05/05 09:20:43;;;;;;;2.25;1.75;;;23.10;23.00;;;;;;5034625;28;20021;-85
2022/05/05 09:23:10;;;;;;;6.28;2.25;;;22.90;23.10;;;;;;5035600;28;20056;-87
2022/05/05 09:25:48;;;;;;;3.00;1.48;;;24.00;23.00;;;;;;5035572;28;20065;-86
2022/05/05 09:28:19;;;;;;;2.58;1.55;;;24.30;22.30;;;;;;5032540;28;20475;-85
2022/05/05 09:30:48;;;;;;;3.58;2.10;;;22.90;22.80;;;;;;5014181;28;20037;-83
2022/05/05 09:33:16;;;;;;;5.03;1.83;;;22.30;23.70;;;;;;5031210;28;20108;-85
2022/05/05 09:35:41;;;;;;;4.80;2.33;;;22.10;23.40;;;;;;5015337;28;20054;-82
2022/05/05 09:38:07;;;;;;;2.88;2.13;;;22.50;23.70;;;;;;5042586;28;20032;-84
2022/05/05 09:40:33;;;;;;;3.05;1.83;;;22.70;23.30;;;;;;5054660;28;20104;-83
2022/05/05 09:43:01;;;;;;;4.07;1.85;;;22.70;23.40;;;;;;5054703;28;20025;-85
2022/05/05 09:45:36;;;;;;;4.47;2.10;;;23.10;23.40;;;;;;5055071;28;20355;-85
2022/05/05 09:48:09;;;;;;;4.18;2.40;;;24.10;22.80;;;;;;5055352;28;20055;-85
2022/05/05 09:50:37;;;;;;;5.53;2.15;;;24.40;22.40;;;;;;5054840;28;20532;-85
2022/05/05 09:58:39;;;;;;;2.70;1.83;;;24.10;22.30;;;;;;5035365;28;20132;-85
2022/05/05 10:01:10;;;;;;;3.22;2.03;;;24.40;22.40;;;;;;5017934;28;20029;-85
2022/05/05 10:04:03;;;;;;;3.65;1.88;;;24.60;22.30;;;;;;5036528;28;20093;-84
2022/05/05 10:06:40;;;;;;;2.92;2.08;;;24.90;22.20;;;;;;5043748;28;20029;-85
2022/05/05 10:09:08;;;;;;;3.40;2.25;;;25.40;22.00;;;;;;5042701;28;20025;-84
2022/05/05 10:11:34;;;;;;;4.20;3.05;;;25.00;22.00;;;;;;5035607;28;20067;-84
2022/05/05 10:14:03;;;;;;;4.05;2.65;;;23.70;22.20;;;;;;5056498;28;20486;-85
2022/05/05 10:16:32;;;;;;;3.10;2.40;;;22.60;23.00;;;;;;5055126;28;20033;-84
2022/05/05 10:19:06;;;;;;;4.97;2.67;;;22.30;23.30;;;;;;5054448;28;20478;-84
2022/05/05 10:21:56;;;;;;;3.50;2.08;;;23.10;23.50;;;;;;5054471;28;20025;-85
2022/05/05 10:24:32;;;;;;;5.15;2.53;;;23.30;22.80;;;;;;5055396;28;20032;-83
2022/05/05 10:27:00;;;;;;;4.22;2.35;;;21.40;23.50;;;;;;5055905;28;20497;-85
2022/05/05 10:29:36;;;;;;;3.38;1.60;;;19.50;24.50;;;;;;5034112;28;20037;-84
2022/05/05 10:32:10;;;;;;;3.40;1.60;;;17.50;25.00;;;;;;5034785;28;20025;-85
2022/05/05 10:34:41;;;;;;;4.32;1.80;;;15.60;26.20;;;;;;5037948;28;20061;-84
2022/05/05 10:37:10;;;;;;;2.28;1.65;;;14.50;27.30;;;;;;5035763;28;20032;-84
2022/05/05 10:39:57;;;;;;;3.17;1.60;;;13.80;28.50;;;;;;5034328;28;20076;-83
2022/05/05 10:42:45;;;;;;;3.28;2.63;;;13.10;28.70;;;;;;5034261;28;20057;-85
2022/05/05 10:45:34;;;;;;;3.17;1.75;;;12.40;29.50;;;;;;5033026;28;20107;-84
2022/05/05 10:48:01;;;;;;;5.15;2.70;;;12.20;29.90;;;;;;5020650;28;20033;-83
2022/05/05 10:50:50;;;;;;;3.63;2.42;;;12.00;30.40;;;;;;5034140;28;20037;-85
2022/05/05 10:53:34;;;;;;;4.22;2.38;;;11.70;30.90;;;;;;5034025;28;20030;-83
2022/05/05 10:56:22;;;;;;;7.80;2.75;;;11.60;31.50;;;;;;5034680;28;20029;-86
2022/05/05 10:59:20;;;;;;;3.20;2.30;;;11.40;31.70;;;;;;5034594;28;20085;-84
2022/05/05 11:01:46;;;;;;;3.22;1.73;;;11.30;31.60;;;;;;5006246;28;20047;-84
2022/05/05 11:04:15;;;;;;;6.10;1.95;;;11.20;31.70;;;;;;5029448;28;20057;-83
2022/05/05 11:06:42;;;;;;;4.47;2.13;;;11.20;32.00;;;;;;5021896;28;20018;-85
2022/05/05 11:09:09;;;;;;;2.10;1.52;;;11.20;32.20;;;;;;5017343;28;20022;-82
2022/05/05 11:11:45;;;;;;;1.88;1.52;;;11.10;32.00;;;;;;5014617;28;20030;-84
2022/05/05 11:22:56;;;;;;;4.40;1.67;;;10.80;33.00;;;;;;5053577;28;20036;-85
2022/05/05 11:25:25;;;;;;;2.22;1.40;;;10.80;32.90;;;;;;5053351;28;20386;-86
2022/05/05 11:27:56;;;;;;;6.40;2.50;;;10.80;32.90;;;;;;5052020;28;20032;-84
2022/05/05 11:30:22;;;;;;;4.47;2.13;;;10.80;33.00;;;;;;5044384;28;20167;-83
2022/05/05 11:32:48;;;;;;;2.60;1.60;;;10.80;32.80;;;;;;5034342;28;20025;-83
2022/05/05 11:35:21;;;;;;;3.53;1.73;;;10.80;33.50;;;;;;5034919;28;20502;-83
2022/05/05 11:37:47;;;;;;;5.32;1.98;;;10.80;33.20;;;;;;5036097;28;20105;-84
2022/05/05 11:40:13;;;;;;;2.15;1.20;;;10.90;33.20;;;;;;5043129;28;20073;-85
2022/05/05 11:45:39;;;;;;;2.05;1.35;;;11.10;32.60;;;;;;5055768;28;20048;-83
2022/05/05 11:48:18;;;;;;;2.63;1.55;;;11.20;32.60;;;;;;5053077;28;20025;-82
2022/05/05 11:50:44;;;;;;;1.85;1.48;;;11.30;32.50;;;;;;5053346;28;20033;-86
2022/05/05 11:53:17;;;;;;;3.85;1.77;;;11.50;32.40;;;;;;5035164;28;20067;-85
2022/05/05 11:55:48;;;;;;;3.28;1.88;;;11.40;31.90;;;;;;5053516;28;20017;-86
2022/05/05 12:01:36;;;;;;;4.38;1.80;;;11.40;32.10;;;;;;5050937;28;20360;-83
2022/05/05 12:04:00;;;;;;;3.78;1.83;;;11.10;32.20;;;;;;5013143;28;20049;-86
2022/05/05 12:06:27;;;;;;;2.78;1.98;;;11.10;32.40;;;;;;5012800;28;20056;-90
2022/05/05 12:08:56;;;;;;;3.42;1.08;;;11.00;31.90;;;;;;5013553;28;20026;-83
2022/05/05 12:11:26;;;;;;;2.78;1.75;;;10.90;31.90;;;;;;5013252;28;20038;-84
2022/05/05 12:13:52;;;;;;;6.15;1.88;;;10.90;32.20;;;;;;5015787;28;20025;-85
2022/05/05 12:16:18;;;;;;;3.63;2.10;;;11.00;32.40;;;;;;5018429;28;20025;-83
2022/05/05 12:18:50;;;;;;;3.47;1.73;;;11.10;32.50;;;;;;5018536;28;20025;-84
2022/05/05 12:21:23;;;;;;;5.07;1.75;;;11.20;32.60;;;;;;5016947;28;20030;-85
2022/05/05 12:24:00;;;;;;;5.20;2.58;;;11.20;32.50;;;;;;5015012;28;20435;-83
2022/05/05 12:26:41;;;;;;;7.03;3.08;;;11.10;32.40;;;;;;5013858;28;20097;-84
2022/05/05 12:29:14;;;;;;;3.90;1.80;;;11.20;32.90;;;;;;5012779;28;20061;-82
2022/05/05 12:31:55;;;;;;;3.83;1.92;;;11.10;32.50;;;;;;5013025;28;20034;-84
2022/05/05 12:34:27;;;;;;;5.22;2.00;;;11.00;32.60;;;;;;5032591;28;20072;-84
2022/05/05 12:37:28;;;;;;;4.28;1.88;;;11.00;32.90;;;;;;5032814;28;20017;-83
2022/05/05 12:40:05;;;;;;;3.67;1.63;;;11.00;32.90;;;;;;4972889;28;20050;-83
2022/05/05 12:42:45;;;;;;;7.57;2.42;;;11.00;33.00;;;;;;4958536;28;20066;-85
2022/05/05 12:45:24;;;;;;;3.88;2.08;;;11.00;32.90;;;;;;4972195;28;20031;-84
2022/05/05 12:47:51;;;;;;;2.05;1.33;;;10.90;32.90;;;;;;4971772;28;20035;-85
2022/05/05 12:50:40;;;;;;;5.57;1.97;;;10.90;33.30;;;;;;4970359;28;20050;-84
2022/05/05 13:01:25;;;;;;;3.20;1.50;;;11.10;32.60;;;;;;4970720;28;20038;-83
2022/05/05 13:03:55;;;;;;;2.97;1.75;;;11.20;32.90;;;;;;4970834;28;20035;-82
2022/05/05 13:06:22;;;;;;;2.10;1.58;;;11.20;33.10;;;;;;4970595;28;20027;-82
2022/05/05 13:08:48;;;;;;;4.38;1.92;;;11.30;32.80;;;;;;4969580;28;20035;-83
2022/05/05 13:11:18;;;;;;;3.80;1.63;;;11.30;33.00;;;;;;4972080;28;20046;-84
2022/05/05 13:13:57;;;;;;;6.93;1.77;;;11.40;32.60;;;;;;4992462;28;20030;-83
2022/05/05 13:16:24;;;;;;;2.35;1.95;;;11.50;32.10;;;;;;5015548;28;20160;-84
2022/05/05 13:18:50;;;;;;;2.47;1.40;;;11.50;31.70;;;;;;5015909;28;20030;-86
2022/05/05 13:21:16;;;;;;;2.95;1.27;;;11.40;31.80;;;;;;5015892;28;20022;-84
2022/05/05 13:23:41;;;;;;;3.40;1.77;;;11.40;31.80;;;;;;5019288;28;20052;-85
2022/05/05 13:26:08;;;;;;;3.28;1.55;;;11.30;32.10;;;;;;5037895;28;20067;-85
2022/05/05 13:28:34;;;;;;;4.93;1.90;;;11.30;32.00;;;;;;5056029;28;20436;-85
2022/05/05 13:31:00;;;;;;;5.43;1.75;;;11.40;32.20;;;;;;5041209;28;20079;-86
2022/05/05 13:33:26;;;;;;;4.00;1.50;;;11.30;32.10;;;;;;5036026;28;20022;-85
2022/05/05 13:35:52;;;;;;;2.42;1.58;;;11.30;32.00;;;;;;5036100;28;20044;-83
2022/05/05 13:38:23;;;;;;;3.38;1.58;;;11.30;32.20;;;;;;5035617;28;20105;-83
2022/05/05 13:40:49;;;;;;;4.53;2.10;;;11.30;32.30;;;;;;5034765;28;20030;-85
2022/05/05 13:43:15;;;;;;;3.05;1.52;;;11.30;31.90;;;;;;5035716;28;20101;-83
2022/05/05 13:45:41;;;;;;;3.28;1.70;;;11.30;31.90;;;;;;5036682;28;20104;-85
2022/05/05 13:48:07;;;;;;;3.92;1.50;;;11.40;32.00;;;;;;5035872;28;20049;-84
2022/05/05 13:50:33;;;;;;;2.20;1.20;;;12.10;31.80;;;;;;5036110;28;20033;-84
2022/05/05 13:52:59;;;;;;;4.47;1.70;;;12.90;31.00;;;;;;5035678;28;20541;-85
2022/05/05 13:55:27;;;;;;;6.40;1.60;;;13.50;31.20;;;;;;5035287;28;20021;-84